Time,TemperatureF,DewpointF,PressureIn,WindDirection,WindDirectionDegrees,WindSpeedMPH,WindSpeedGustMPH,Humidity,HourlyPrecipIn,Conditions,Clouds,dailyrainin,SolarRadiationWatts/m^2,SoftwareType,DateUTC
2013-11-12 00:02:00,52.0,49.0,-100.00,ESE,114,0.0,5.0,91,0.00,,,0.00,0.000000,,2013-11-12 08:02:00,
2013-11-12 00:42:00,51.0,51.0,-100.00,East,95,2.0,6.0,100,0.02,,,0.02,0.000000,,2013-11-12 08:42:00,
2013-11-12 00:52:00,51.0,51.0,-100.00,East,95,2.0,6.0,100,0.02,,,0.02,0.000000,,2013-11-12 08:52:00,
2013-11-12 01:02:00,51.0,51.0,-100.00,East,95,2.0,6.0,100,0.02,,,0.02,0.000000,,2013-11-12 09:02:00,
2013-11-12 01:42:00,49.0,49.0,-100.00,East,92,2.0,8.0,100,0.04,,,0.06,0.000000,,2013-11-12 09:42:00,
2013-11-12 01:53:00,49.0,49.0,-100.00,East,92,2.0,8.0,100,0.04,,,0.06,0.000000,,2013-11-12 09:53:00,
2013-11-12 02:03:00,49.0,49.0,-100.00,East,92,2.0,8.0,100,0.04,,,0.06,0.000000,,2013-11-12 10:03:00,
2013-11-12 02:42:00,51.0,51.0,-100.00,ESE,123,0.0,6.0,100,0.06,,,0.12,0.000000,,2013-11-12 10:42:00,
2013-11-12 02:53:00,51.0,51.0,-100.00,ESE,123,0.0,6.0,100,0.06,,,0.12,0.000000,,2013-11-12 10:53:00,
2013-11-12 03:02:00,51.0,51.0,-100.00,ESE,123,0.0,6.0,100,0.06,,,0.12,0.000000,,2013-11-12 11:02:00,
2013-11-12 04:42:00,52.0,52.0,-100.00,SE,141,0.0,3.0,100,-99.99,,,0.29,0.000000,,2013-11-12 12:42:00,
2013-11-12 04:52:00,52.0,52.0,-100.00,SE,141,0.0,3.0,100,-99.99,,,0.29,0.000000,,2013-11-12 12:52:00,
2013-11-12 05:01:00,52.0,52.0,-100.00,SE,141,0.0,3.0,100,-99.99,,,0.29,0.000000,,2013-11-12 13:01:00,
2013-11-12 05:42:00,52.0,52.0,-100.00,SE,124,0.0,3.0,100,0.10,,,0.39,0.000000,,2013-11-12 13:42:00,
2013-11-12 05:52:00,52.0,52.0,-100.00,SE,124,0.0,3.0,100,0.10,,,0.39,0.000000,,2013-11-12 13:52:00,
2013-11-12 06:02:00,52.0,52.0,-100.00,SE,124,0.0,3.0,100,0.10,,,0.39,0.000000,,2013-11-12 14:02:00,
2013-11-12 06:42:00,51.0,51.0,-100.00,SE,141,1.0,4.0,100,0.05,,,0.44,0.000000,,2013-11-12 14:42:00,
2013-11-12 06:52:00,51.0,51.0,-100.00,SE,141,1.0,4.0,100,0.05,,,0.44,0.000000,,2013-11-12 14:52:00,
2013-11-12 07:02:00,51.0,51.0,-100.00,SE,141,1.0,4.0,100,0.05,,,0.44,0.000000,,2013-11-12 15:02:00,
2013-11-12 07:44:00,54.0,54.0,-100.00,South,183,6.0,9.0,100,0.03,,,0.47,0.000000,,2013-11-12 15:44:00,
2013-11-12 07:53:00,54.0,54.0,-100.00,South,183,6.0,9.0,100,0.03,,,0.47,0.000000,,2013-11-12 15:53:00,
2013-11-12 08:03:00,54.0,54.0,-100.00,South,183,6.0,9.0,100,0.03,,,0.47,0.000000,,2013-11-12 16:03:00,
2013-11-12 08:23:00,54.0,54.0,-100.00,SSW,194,8.0,13.0,100,0.02,,,-99.99,1.000000,,2013-11-12 16:23:00,
2013-11-12 08:33:00,54.0,54.0,-100.00,SSW,194,8.0,13.0,100,0.02,,,-99.99,1.000000,,2013-11-12 16:33:00,
2013-11-12 08:42:00,54.0,54.0,-100.00,SSW,194,8.0,13.0,100,0.02,,,-99.99,1.000000,,2013-11-12 16:42:00,
2013-11-12 08:53:00,54.0,54.0,-100.00,SSW,194,8.0,13.0,100,0.02,,,-99.99,1.000000,,2013-11-12 16:53:00,
2013-11-12 09:02:00,54.0,54.0,-100.00,SSW,194,8.0,13.0,100,0.02,,,-99.99,1.000000,,2013-11-12 17:02:00,
2013-11-12 09:42:00,53.0,53.0,-100.00,South,189,10.0,16.0,100,0.00,,,0.49,35.000000,,2013-11-12 17:42:00,
2013-11-12 09:52:00,53.0,53.0,-100.00,South,189,10.0,16.0,100,0.00,,,0.49,35.000000,,2013-11-12 17:52:00,
2013-11-12 10:01:00,53.0,53.0,-100.00,South,189,10.0,16.0,100,0.00,,,0.49,35.000000,,2013-11-12 18:01:00,
2013-11-12 10:23:00,55.0,55.0,-100.00,South,191,9.0,18.0,100,0.00,,,0.49,86.000000,,2013-11-12 18:23:00,
2013-11-12 10:32:00,55.0,55.0,-100.00,South,191,9.0,18.0,100,0.00,,,0.49,86.000000,,2013-11-12 18:32:00,
2013-11-12 10:42:00,55.0,55.0,-100.00,South,191,9.0,18.0,100,0.00,,,0.49,86.000000,,2013-11-12 18:42:00,
2013-11-12 10:52:00,55.0,55.0,-100.00,South,191,9.0,18.0,100,0.00,,,0.49,86.000000,,2013-11-12 18:52:00,
2013-11-12 11:01:00,55.0,55.0,-100.00,South,191,9.0,18.0,100,0.00,,,0.49,86.000000,,2013-11-12 19:01:00,
2013-11-12 11:42:00,56.0,56.0,-100.00,SSW,195,8.0,16.0,100,0.00,,,0.49,107.000000,,2013-11-12 19:42:00,
2013-11-12 11:52:00,56.0,56.0,-100.00,SSW,195,8.0,16.0,100,0.00,,,0.49,107.000000,,2013-11-12 19:52:00,
2013-11-12 12:01:00,56.0,56.0,-100.00,SSW,195,8.0,16.0,100,0.00,,,0.49,107.000000,,2013-11-12 20:01:00,
2013-11-12 12:42:00,56.0,56.0,-100.00,SSW,206,6.0,15.0,100,0.00,,,0.49,134.000000,,2013-11-12 20:42:00,
2013-11-12 12:52:00,56.0,56.0,-100.00,SSW,206,6.0,15.0,100,0.00,,,0.49,134.000000,,2013-11-12 20:52:00,
2013-11-12 13:02:00,56.0,56.0,-100.00,SSW,206,6.0,15.0,100,0.00,,,0.49,134.000000,,2013-11-12 21:02:00,
2013-11-12 13:04:00,57.0,57.0,-100.00,SSW,197,6.0,13.0,100,0.00,,,0.49,180.000000,,2013-11-12 21:04:00,
2013-11-12 13:22:00,57.0,57.0,-100.00,SSW,197,6.0,13.0,100,0.00,,,0.49,180.000000,,2013-11-12 21:22:00,
2013-11-12 13:34:00,57.0,57.0,-100.00,SSW,197,6.0,13.0,100,0.00,,,0.49,180.000000,,2013-11-12 21:34:00,
2013-11-12 13:44:00,57.0,57.0,-100.00,SSW,197,6.0,13.0,100,0.00,,,0.49,180.000000,,2013-11-12 21:44:00,
2013-11-12 13:54:00,57.0,57.0,-100.00,SSW,197,6.0,13.0,100,0.00,,,0.49,180.000000,,2013-11-12 21:54:00,
2013-11-12 14:43:00,56.0,56.0,-100.00,SSW,194,7.0,11.0,100,0.00,,,0.49,201.000000,,2013-11-12 22:43:00,
2013-11-12 14:54:00,56.0,56.0,-100.00,SSW,194,7.0,11.0,100,0.00,,,0.49,201.000000,,2013-11-12 22:54:00,
2013-11-12 15:03:00,56.0,56.0,-100.00,SSW,194,7.0,11.0,100,0.00,,,0.49,201.000000,,2013-11-12 23:03:00,
2013-11-12 15:42:00,56.0,56.0,-100.00,SSW,201,4.0,12.0,100,0.00,,,0.49,143.000000,,2013-11-12 23:42:00,
2013-11-12 15:54:00,56.0,56.0,-100.00,SSW,201,4.0,12.0,100,0.00,,,0.49,143.000000,,2013-11-12 23:54:00,
2013-11-12 16:02:00,56.0,56.0,-100.00,SSW,201,4.0,12.0,100,0.00,,,0.49,143.000000,,2013-11-13 00:02:00,
2013-11-12 16:42:00,58.0,58.0,-100.00,SSW,202,2.0,10.0,100,0.00,,,0.49,147.000000,,2013-11-13 00:42:00,
2013-11-12 16:52:00,58.0,58.0,-100.00,SSW,202,2.0,10.0,100,0.00,,,0.49,147.000000,,2013-11-13 00:52:00,
2013-11-12 17:01:00,58.0,58.0,-100.00,SSW,202,2.0,10.0,100,0.00,,,0.49,147.000000,,2013-11-13 01:01:00,
2013-11-12 17:42:00,55.0,55.0,-100.00,SW,214,0.0,7.0,100,0.00,,,0.49,34.000000,,2013-11-13 01:42:00,
2013-11-12 17:52:00,55.0,55.0,-100.00,SW,214,0.0,7.0,100,0.00,,,0.49,34.000000,,2013-11-13 01:52:00,
2013-11-12 18:01:00,55.0,55.0,-100.00,SW,214,0.0,7.0,100,0.00,,,0.49,34.000000,,2013-11-13 02:01:00,
2013-11-12 18:42:00,52.0,52.0,-100.00,East,95,0.0,2.0,100,0.00,,,0.49,0.000000,,2013-11-13 02:42:00,
2013-11-12 18:52:00,52.0,52.0,-100.00,East,95,0.0,2.0,100,0.00,,,0.49,0.000000,,2013-11-13 02:52:00,
2013-11-12 19:02:00,52.0,52.0,-100.00,East,95,0.0,2.0,100,0.00,,,0.49,0.000000,,2013-11-13 03:02:00,
2013-11-12 19:04:00,52.0,52.0,-100.00,South,175,0.0,0.0,100,0.00,,,0.49,0.000000,,2013-11-13 03:04:00,
2013-11-12 19:45:00,52.0,52.0,-100.00,South,175,0.0,0.0,100,0.00,,,0.49,0.000000,,2013-11-13 03:45:00,
2013-11-12 19:54:00,52.0,52.0,-100.00,South,175,0.0,0.0,100,0.00,,,0.49,0.000000,,2013-11-13 03:54:00,
2013-11-12 20:43:00,53.0,53.0,-100.00,SE,134,0.0,0.0,100,0.00,,,0.49,0.000000,,2013-11-13 04:43:00,
2013-11-12 20:53:00,53.0,53.0,-100.00,SE,134,0.0,0.0,100,0.00,,,0.49,0.000000,,2013-11-13 04:53:00,
2013-11-12 21:03:00,53.0,53.0,-100.00,SE,134,0.0,0.0,100,0.00,,,0.49,0.000000,,2013-11-13 05:03:00,
2013-11-12 21:43:00,52.0,52.0,-100.00,NNE,30,0.0,0.0,100,0.00,,,0.49,0.000000,,2013-11-13 05:43:00,
2013-11-12 21:53:00,52.0,52.0,-100.00,NNE,30,0.0,0.0,100,0.00,,,0.49,0.000000,,2013-11-13 05:53:00,
2013-11-12 22:03:00,52.0,52.0,-100.00,NNE,30,0.0,0.0,100,0.00,,,0.49,0.000000,,2013-11-13 06:03:00,
2013-11-12 22:42:00,50.0,50.0,-100.00,WNW,290,0.0,0.0,100,0.00,,,0.49,0.000000,,2013-11-13 06:42:00,
2013-11-12 22:52:00,50.0,50.0,-100.00,WNW,290,0.0,0.0,100,0.00,,,0.49,0.000000,,2013-11-13 06:52:00,
2013-11-12 23:01:00,50.0,50.0,-100.00,WNW,290,0.0,0.0,100,0.00,,,0.49,0.000000,,2013-11-13 07:01:00,
2013-11-12 23:42:00,52.0,52.0,-100.00,ESE,113,0.0,0.0,100,0.00,,,0.49,0.000000,,2013-11-13 07:42:00,
2013-11-12 23:52:00,52.0,52.0,-100.00,ESE,113,0.0,0.0,100,0.00,,,0.49,0.000000,,2013-11-13 07:52:00,